Time;durP1;ratioP1;P1;durP2;ratioP2;P2;SDS_P1;SDS_P2;PMS_P1;PMS_P2;Temp;Humidity;BMP_temperature;BMP_pressure;BME280_temperature;BME280_humidity;BME280_pressure;Samples;Min_cycle;Max_cycle;Signal;HPM_P1;HPM_P2
2021/05/18 00:27:32;;;;;;;4.62;3.37;;;;;;;;;;5176519;27;20135;-63
2021/05/18 00:30:07;;;;;;;8.52;3.58;;;;;;;;;;5194834;27;20057;-63
2021/05/18 00:32:51;;;;;;;7.55;3.40;;;;;;;;;;5179345;27;20176;-62
2021/05/18 00:35:41;;;;;;;7.75;3.20;;;;;;;;;;5168347;27;20409;-65
2021/05/18 00:38:28;;;;;;;7.95;3.28;;;;;;;;;;5168122;27;20104;-63
2021/05/18 00:41:05;;;;;;;8.45;4.20;;;;;;;;;;5182955;27;20072;-62
2021/05/18 00:43:38;;;;;;;9.57;3.97;;;;;;;;;;5184308;27;20070;-63
2021/05/18 00:46:08;;;;;;;6.82;3.67;;;;;;;;;;5182566;27;20168;-62
2021/05/18 00:48:35;;;;;;;8.88;4.60;;;;;;;;;;5201833;27;20073;-63
2021/05/18 00:51:04;;;;;;;7.82;4.05;;;;;;;;;;5201552;27;20061;-62
2021/05/18 00:53:32;;;;;;;7.00;4.10;;;;;;;;;;5201295;27;20066;-63
2021/05/18 00:58:53;;;;;;;8.27;4.07;;;;;;;;;;5184784;27;20051;-63
2021/05/18 01:01:21;;;;;;;9.82;4.20;;;;;;;;;;5164101;27;20182;-64
2021/05/18 01:03:50;;;;;;;9.25;4.07;;;;;;;;;;5201370;27;20213;-64
2021/05/18 01:06:30;;;;;;;10.93;4.90;;;;;;;;;;5200768;27;20087;-64
2021/05/18 01:09:07;;;;;;;9.88;4.60;;;;;;;;;;5183289;27;20109;-64
2021/05/18 01:11:34;;;;;;;9.05;4.25;;;;;;;;;;5166153;27;20214;-64
2021/05/18 01:14:04;;;;;;;11.15;4.32;;;;;;;;;;5201465;27;20097;-63
2021/05/18 01:16:33;;;;;;;14.43;5.32;;;;;;;;;;5181426;27;20085;-63
2021/05/18 01:18:59;;;;;;;10.57;4.87;;;;;;;;;;5200949;27;20086;-63
2021/05/18 01:21:26;;;;;;;15.45;5.20;;;;;;;;;;5181906;27;20111;-63
2021/05/18 01:23:52;;;;;;;9.95;4.68;;;;;;;;;;5201351;27;20097;-64
2021/05/18 01:26:18;;;;;;;12.63;4.43;;;;;;;;;;5200392;27;20069;-63
2021/05/18 01:28:45;;;;;;;16.37;5.32;;;;;;;;;;5164356;27;20094;-65
2021/05/18 01:31:12;;;;;;;9.48;4.75;;;;;;;;;;5200995;27;20057;-64
2021/05/18 01:33:38;;;;;;;9.30;4.37;;;;;;;;;;5182799;27;20082;-64
2021/05/18 01:36:11;;;;;;;10.70;4.32;;;;;;;;;;5183129;27;20061;-66
2021/05/18 01:43:52;;;;;;;8.50;3.97;;;;;;;;;;5202628;27;20141;-64
2021/05/18 01:46:19;;;;;;;9.35;5.22;;;;;;;;;;5165446;27;20264;-64
2021/05/18 01:48:48;;;;;;;10.07;4.43;;;;;;;;;;5203164;27;20385;-64
2021/05/18 01:51:19;;;;;;;11.57;4.65;;;;;;;;;;5183958;27;20082;-64
2021/05/18 01:53:49;;;;;;;11.37;4.50;;;;;;;;;;5168302;27;20502;-64
2021/05/18 01:56:33;;;;;;;6.93;3.97;;;;;;;;;;5202376;27;20097;-63
2021/05/18 01:59:09;;;;;;;9.43;4.10;;;;;;;;;;5202030;27;20078;-66
2021/05/18 02:01:35;;;;;;;7.95;4.47;;;;;;;;;;5202310;27;20101;-63
2021/05/18 02:04:03;;;;;;;7.07;3.80;;;;;;;;;;5183419;27;20159;-63
2021/05/18 02:06:29;;;;;;;10.75;4.05;;;;;;;;;;5201762;27;20076;-63
2021/05/18 02:08:55;;;;;;;10.50;4.07;;;;;;;;;;5182444;27;20518;-66
2021/05/18 02:11:21;;;;;;;8.05;3.58;;;;;;;;;;5183005;27;20078;-64
2021/05/18 02:13:50;;;;;;;7.05;3.60;;;;;;;;;;5183399;27;20176;-63
2021/05/18 02:16:32;;;;;;;7.15;4.12;;;;;;;;;;5201587;27;20097;-66
2021/05/18 02:19:23;;;;;;;8.18;3.67;;;;;;;;;;5202045;27;20163;-65
2021/05/18 02:22:07;;;;;;;13.43;3.92;;;;;;;;;;5202026;27;20138;-64
2021/05/18 02:27:17;;;;;;;8.93;3.53;;;;;;;;;;5201340;27;20158;-70
2021/05/18 02:29:43;;;;;;;13.65;3.90;;;;;;;;;;5202301;27;20093;-69
2021/05/18 02:32:09;;;;;;;6.35;3.70;;;;;;;;;;5182104;27;20149;-66
2021/05/18 02:34:35;;;;;;;7.80;3.87;;;;;;;;;;5201600;27;20065;-65
2021/05/18 02:37:02;;;;;;;10.80;4.32;;;;;;;;;;5201493;27;20081;-65
2021/05/18 02:39:28;;;;;;;7.65;4.60;;;;;;;;;;5202160;27;20104;-65
2021/05/18 02:41:54;;;;;;;15.63;4.97;;;;;;;;;;5201318;27;20082;-68
2021/05/18 02:49:39;;;;;;;18.73;7.15;;;;;;;;;;5202174;27;20196;-65
2021/05/18 02:52:05;;;;;;;17.23;8.40;;;;;;;;;;5201291;27;20102;-65
2021/05/18 02:54:31;;;;;;;19.25;7.93;;;;;;;;;;5182646;27;20185;-66
2021/05/18 02:57:02;;;;;;;18.92;7.82;;;;;;;;;;5201444;27;20077;-64
2021/05/18 02:59:28;;;;;;;15.48;7.18;;;;;;;;;;5201846;27;20081;-64
2021/05/18 03:01:58;;;;;;;13.27;6.22;;;;;;;;;;5182561;27;20183;-66
2021/05/18 03:04:25;;;;;;;9.90;6.15;;;;;;;;;;5201892;27;20062;-64
2021/05/18 03:06:51;;;;;;;21.73;7.07;;;;;;;;;;5201338;27;20061;-65
2021/05/18 03:09:17;;;;;;;14.77;6.05;;;;;;;;;;5201425;27;20183;-64
2021/05/18 03:11:44;;;;;;;17.42;6.15;;;;;;;;;;5201598;27;20476;-74
2021/05/18 03:14:11;;;;;;;11.43;5.47;;;;;;;;;;5201294;27;20153;-62
2021/05/18 03:16:38;;;;;;;15.93;5.05;;;;;;;;;;5201328;27;20550;-63
2021/05/18 03:19:04;;;;;;;18.83;4.80;;;;;;;;;;5180250;27;20175;-64
2021/05/18 03:21:31;;;;;;;13.50;4.25;;;;;;;;;;5182340;27;20093;-63
2021/05/18 03:23:57;;;;;;;11.70;4.40;;;;;;;;;;5201632;27;20167;-61
2021/05/18 03:26:23;;;;;;;11.50;4.47;;;;;;;;;;5201451;27;20487;-61
2021/05/18 03:28:58;;;;;;;8.07;3.35;;;;;;;;;;5202031;27;20169;-63
2021/05/18 03:36:54;;;;;;;18.10;3.97;;;;;;;;;;5200690;27;20112;-63
2021/05/18 03:39:20;;;;;;;10.40;3.70;;;;;;;;;;5200963;27;20173;-64
2021/05/18 03:44:46;;;;;;;11.15;4.78;;;;;;;;;;5200556;27;20578;-63
2021/05/18 03:53:00;;;;;;;11.93;3.37;;;;;;;;;;5143684;27;20109;-66
2021/05/18 04:04:13;;;;;;;10.43;3.55;;;;;;;;;;5184921;27;20093;-63
2021/05/18 04:17:42;;;;;;;13.32;3.75;;;;;;;;;;5201321;27;20421;-63
2021/05/18 04:20:24;;;;;;;12.18;3.37;;;;;;;;;;5201316;27;20494;-63
2021/05/18 04:52:10;;;;;;;7.32;2.50;;;;;;;;;;5201148;27;20445;-66
2021/05/18 05:00:13;;;;;;;8.18;2.65;;;;;;;;;;5201209;27;20495;-63
2021/05/18 05:08:35;;;;;;;4.70;2.43;;;;;;;;;;5201593;27;20502;-66
2021/05/18 05:16:11;;;;;;;6.62;2.62;;;;;;;;;;5202508;27;20078;-63
2021/05/18 05:18:37;;;;;;;4.68;2.92;;;;;;;;;;5183104;27;20186;-65
2021/05/18 05:21:04;;;;;;;6.30;2.70;;;;;;;;;;5183181;27;20104;-63
2021/05/18 05:23:29;;;;;;;6.05;2.20;;;;;;;;;;5202221;27;20094;-64
2021/05/18 05:25:55;;;;;;;4.80;2.53;;;;;;;;;;5183170;27;20104;-64
2021/05/18 05:28:21;;;;;;;15.65;3.03;;;;;;;;;;5202757;27;20086;-64
2021/05/18 05:30:47;;;;;;;6.45;2.50;;;;;;;;;;5183170;27;20436;-65
2021/05/18 05:33:13;;;;;;;7.93;2.50;;;;;;;;;;5183140;27;20116;-66
2021/05/18 05:35:39;;;;;;;10.90;2.50;;;;;;;;;;5183136;27;20100;-66
2021/05/18 05:38:06;;;;;;;13.77;2.90;;;;;;;;;;5202446;27;20145;-65
2021/05/18 05:40:33;;;;;;;5.12;2.25;;;;;;;;;;5202295;27;20486;-66
2021/05/18 05:42:59;;;;;;;13.00;3.12;;;;;;;;;;5202284;27;20080;-65
2021/05/18 05:45:25;;;;;;;4.95;2.85;;;;;;;;;;5202185;27;20112;-63
2021/05/18 05:47:51;;;;;;;7.50;2.17;;;;;;;;;;5182942;27;20089;-63
2021/05/18 05:50:17;;;;;;;7.80;3.20;;;;;;;;;;5202222;27;20534;-63
2021/05/18 05:52:43;;;;;;;7.43;2.62;;;;;;;;;;5202138;27;20152;-66
2021/05/18 05:55:10;;;;;;;7.15;2.70;;;;;;;;;;5183018;27;20085;-66
2021/05/18 05:57:36;;;;;;;6.87;1.85;;;;;;;;;;5202463;27;20494;-64
2021/05/18 06:00:07;;;;;;;3.47;1.90;;;;;;;;;;5183140;27;20471;-64
2021/05/18 06:02:33;;;;;;;6.40;2.20;;;;;;;;;;5202093;27;20514;-64
2021/05/18 06:04:59;;;;;;;9.73;2.47;;;;;;;;;;5202051;27;20523;-64
2021/05/18 06:07:25;;;;;;;8.68;2.20;;;;;;;;;;5202191;27;20061;-63
2021/05/18 06:09:57;;;;;;;9.32;2.50;;;;;;;;;;5202228;27;20195;-64
2021/05/18 06:12:42;;;;;;;4.03;2.10;;;;;;;;;;5202056;27;20175;-63
2021/05/18 06:50:20;;;;;;;6.25;2.20;;;;;;;;;;5202016;27;20496;-63
2021/05/18 06:52:47;;;;;;;15.23;2.10;;;;;;;;;;5202279;27;20475;-67
2021/05/18 06:55:22;;;;;;;8.18;2.10;;;;;;;;;;5201871;27;20088;-64
2021/05/18 06:57:57;;;;;;;;;;;;;;;;;;5184127;27;20103;-63
2021/05/18 07:00:23;;;;;;;7.95;2.35;;;;;;;;;;5202119;27;19973;-63
2021/05/18 07:02:51;;;;;;;6.18;2.20;;;;;;;;;;5201774;27;20173;-64
2021/05/18 07:05:24;;;;;;;5.10;2.05;;;;;;;;;;5202024;27;20068;-65
2021/05/18 07:08:21;;;;;;;6.50;1.80;;;;;;;;;;5182807;27;20077;-63
2021/05/18 07:10:47;;;;;;;3.37;1.77;;;;;;;;;;5200675;27;20093;-63
2021/05/18 07:13:31;;;;;;;2.47;1.62;;;;;;;;;;5186748;27;20075;-67
2021/05/18 07:15:57;;;;;;;4.05;1.98;;;;;;;;;;5182472;27;20085;-66
2021/05/18 07:18:23;;;;;;;6.07;1.80;;;;;;;;;;5201620;27;20079;-66
2021/05/18 07:20:49;;;;;;;12.77;2.30;;;;;;;;;;5201711;27;20108;-66
2021/05/18 07:23:18;;;;;;;7.18;2.22;;;;;;;;;;5165313;27;20085;-63
2021/05/18 07:25:46;;;;;;;3.12;1.70;;;;;;;;;;5182841;27;20381;-66
2021/05/18 07:28:15;;;;;;;8.25;2.10;;;;;;;;;;5201570;27;20082;-63
2021/05/18 07:30:41;;;;;;;8.80;2.00;;;;;;;;;;5183041;27;20086;-65
2021/05/18 07:33:08;;;;;;;10.43;2.47;;;;;;;;;;5201546;27;20082;-65
2021/05/18 07:35:41;;;;;;;4.03;2.20;;;;;;;;;;5183222;27;20180;-65
2021/05/18 07:38:07;;;;;;;6.68;2.20;;;;;;;;;;5201858;27;20462;-64
2021/05/18 07:40:34;;;;;;;5.05;1.67;;;;;;;;;;5201592;27;20077;-64
2021/05/18 07:43:17;;;;;;;9.95;2.10;;;;;;;;;;5165214;27;20157;-64
2021/05/18 07:45:53;;;;;;;3.87;2.10;;;;;;;;;;5201514;27;20058;-63
2021/05/18 07:51:11;;;;;;;9.55;2.33;;;;;;;;;;5201612;27;20094;-64
2021/05/18 08:07:22;;;;;;;6.75;1.92;;;;;;;;;;5201245;27;20403;-63
2021/05/18 08:09:55;;;;;;;8.93;2.10;;;;;;;;;;5201402;27;20112;-65
2021/05/18 08:12:21;;;;;;;18.23;3.55;;;;;;;;;;5183353;27;20058;-65
2021/05/18 08:14:55;;;;;;;13.73;2.50;;;;;;;;;;5182170;27;20104;-64
2021/05/18 08:17:27;;;;;;;8.23;1.95;;;;;;;;;;5201460;27;20069;-63
2021/05/18 09:44:10;;;;;;;14.15;2.47;;;;;;;;;;5200843;27;20097;-63
2021/05/18 10:36:13;;;;;;;10.13;2.22;;;;;;;;;;5202099;27;20140;-63
2021/05/18 10:38:46;;;;;;;5.87;2.20;;;;;;;;;;5201978;27;20247;-63
2021/05/18 10:41:17;;;;;;;7.70;2.58;;;;;;;;;;5201681;27;20085;-62
2021/05/18 10:43:57;;;;;;;4.35;2.15;;;;;;;;;;5183019;27;20092;-68
2021/05/18 10:46:24;;;;;;;7.53;1.98;;;;;;;;;;5182558;27;20323;-66
2021/05/18 10:48:54;;;;;;;3.65;1.83;;;;;;;;;;5165552;27;20151;-64
2021/05/18 10:51:25;;;;;;;10.13;2.83;;;;;;;;;;5201655;27;20163;-68
2021/05/18 10:54:26;;;;;;;9.50;3.58;;;;;;;;;;5202295;27;20097;-64
2021/05/18 10:56:56;;;;;;;8.43;2.22;;;;;;;;;;5183523;27;20489;-64
2021/05/18 10:59:31;;;;;;;6.40;1.77;;;;;;;;;;5202140;27;20101;-63
2021/05/18 11:02:09;;;;;;;9.05;2.62;;;;;;;;;;5201825;27;20070;-63
2021/05/18 11:04:37;;;;;;;5.30;2.37;;;;;;;;;;5202063;27;20409;-63
2021/05/18 11:07:03;;;;;;;7.93;2.55;;;;;;;;;;5201387;27;20092;-64
2021/05/18 11:09:29;;;;;;;10.32;2.30;;;;;;;;;;5201783;27;20068;-64
2021/05/18 11:12:00;;;;;;;6.75;2.25;;;;;;;;;;5201896;27;20089;-63
2021/05/18 11:14:41;;;;;;;9.30;2.42;;;;;;;;;;5201729;27;20081;-63
2021/05/18 11:17:11;;;;;;;6.95;1.73;;;;;;;;;;5201719;27;20071;-63
2021/05/18 11:19:52;;;;;;;8.48;2.10;;;;;;;;;;5201728;27;20162;-63
2021/05/18 11:23:18;;;;;;;6.90;2.20;;;;;;;;;;5182531;27;20073;-63
2021/05/18 11:25:04;;;;;;;10.50;2.20;;;;;;;;;;5185727;27;20089;-65
2021/05/18 11:27:30;;;;;;;6.50;1.90;;;;;;;;;;5201553;27;20081;-64
2021/05/18 11:29:56;;;;;;;8.43;2.12;;;;;;;;;;5201646;27;20086;-65
2021/05/18 11:32:22;;;;;;;9.48;2.00;;;;;;;;;;5182226;27;20512;-67
2021/05/18 11:34:58;;;;;;;4.22;2.08;;;;;;;;;;5201649;27;20128;-65
2021/05/18 11:37:26;;;;;;;5.60;2.47;;;;;;;;;;5201588;27;20085;-64
2021/05/18 11:40:13;;;;;;;9.68;2.22;;;;;;;;;;5165420;27;20068;-68
2021/05/18 11:42:39;;;;;;;4.00;1.90;;;;;;;;;;5201971;27;20590;-64
2021/05/18 11:45:10;;;;;;;4.97;1.55;;;;;;;;;;5201425;27;20101;-64
2021/05/18 11:47:36;;;;;;;2.75;1.60;;;;;;;;;;5201886;27;20476;-66
2021/05/18 11:50:04;;;;;;;6.68;1.95;;;;;;;;;;5201835;27;20065;-65
2021/05/18 11:52:37;;;;;;;6.68;2.60;;;;;;;;;;5182492;27;20074;-65
2021/05/18 11:55:22;;;;;;;6.40;2.05;;;;;;;;;;5201772;27;20078;-65
2021/05/18 11:57:51;;;;;;;5.37;1.73;;;;;;;;;;5182345;27;20073;-69
2021/05/18 12:00:22;;;;;;;11.07;2.28;;;;;;;;;;5182760;27;20405;-68
2021/05/18 12:02:57;;;;;;;6.57;1.80;;;;;;;;;;5182073;27;20475;-65
2021/05/18 12:05:23;;;;;;;6.18;1.70;;;;;;;;;;5182433;27;20073;-64
2021/05/18 12:07:49;;;;;;;6.15;1.70;;;;;;;;;;5182164;27;20066;-68
2021/05/18 12:10:29;;;;;;;5.50;2.22;;;;;;;;;;5201370;27;20082;-67
2021/05/18 12:12:55;;;;;;;5.37;2.00;;;;;;;;;;5201165;27;20089;-67
2021/05/18 12:15:21;;;;;;;4.80;2.03;;;;;;;;;;5201299;27;20105;-64
2021/05/18 12:17:51;;;;;;;9.20;1.83;;;;;;;;;;5201056;27;20381;-64
2021/05/18 12:20:17;;;;;;;7.07;2.03;;;;;;;;;;5182835;27;20467;-67
2021/05/18 12:22:43;;;;;;;8.25;2.40;;;;;;;;;;5164739;27;20678;-64
2021/05/18 12:25:10;;;;;;;5.20;2.08;;;;;;;;;;5201137;27;20177;-63
2021/05/18 12:27:45;;;;;;;13.85;2.35;;;;;;;;;;5201276;27;20097;-63
2021/05/18 12:30:12;;;;;;;1.98;1.77;;;;;;;;;;5182002;27;20093;-64
2021/05/18 12:32:47;;;;;;;1.65;1.55;;;;;;;;;;5201246;27;20110;-67
2021/05/18 12:35:20;;;;;;;3.85;1.92;;;;;;;;;;5201294;27;20094;-67
2021/05/18 12:37:47;;;;;;;7.90;3.25;;;;;;;;;;5201105;27;20089;-63
2021/05/18 12:40:19;;;;;;;7.47;2.42;;;;;;;;;;5201209;27;20432;-65
2021/05/18 12:42:47;;;;;;;3.85;1.58;;;;;;;;;;5201190;27;20073;-66
2021/05/18 12:45:15;;;;;;;5.12;2.10;;;;;;;;;;5201126;27;20089;-68
2021/05/18 12:47:42;;;;;;;5.32;2.53;;;;;;;;;;5201282;27;20170;-67
2021/05/18 12:50:12;;;;;;;4.15;2.40;;;;;;;;;;5201254;27;20088;-64
2021/05/18 12:52:42;;;;;;;10.15;2.12;;;;;;;;;;5199583;27;20432;-63
2021/05/18 12:55:16;;;;;;;5.43;3.50;;;;;;;;;;5201104;27;20077;-65
2021/05/18 12:58:15;;;;;;;7.75;1.98;;;;;;;;;;5201590;27;20069;-67
2021/05/18 13:00:42;;;;;;;7.85;2.20;;;;;;;;;;5197930;27;20104;-64
2021/05/18 13:03:13;;;;;;;5.95;2.05;;;;;;;;;;5182070;27;20082;-64
2021/05/18 13:06:00;;;;;;;9.85;1.73;;;;;;;;;;5201852;27;20069;-64
2021/05/18 13:08:36;;;;;;;4.62;1.77;;;;;;;;;;5184801;27;20097;-64
2021/05/18 13:13:35;;;;;;;12.73;2.35;;;;;;;;;;5182138;27;20093;-65
2021/05/18 13:16:16;;;;;;;5.75;2.15;;;;;;;;;;5201103;27;20531;-64
2021/05/18 13:18:51;;;;;;;7.07;3.47;;;;;;;;;;5201111;27;20093;-68
2021/05/18 13:21:18;;;;;;;;;;;;;;;;;;5201163;27;20089;-64
2021/05/18 13:26:26;;;;;;;4.65;2.53;;;;;;;;;;5200898;27;20424;-64
2021/05/18 13:29:09;;;;;;;7.32;2.40;;;;;;;;;;5200013;27;20077;-63
2021/05/18 13:31:36;;;;;;;11.12;2.28;;;;;;;;;;5183583;27;20096;-64
2021/05/18 13:34:02;;;;;;;5.90;1.87;;;;;;;;;;5183275;27;20105;-64
2021/05/18 13:36:33;;;;;;;13.93;3.40;;;;;;;;;;5202515;27;20194;-68
2021/05/18 13:39:18;;;;;;;6.53;1.98;;;;;;;;;;5202761;27;20504;-64
2021/05/18 13:41:44;;;;;;;10.07;2.35;;;;;;;;;;5202453;27;20159;-64
2021/05/18 13:44:10;;;;;;;5.15;2.12;;;;;;;;;;5202369;27;20096;-67
2021/05/18 13:46:36;;;;;;;7.35;1.70;;;;;;;;;;5202711;27;20180;-64
2021/05/18 13:49:03;;;;;;;10.10;1.90;;;;;;;;;;5202389;27;20086;-64
2021/05/18 13:51:29;;;;;;;9.80;2.35;;;;;;;;;;5202089;27;20578;-67
2021/05/18 13:53:55;;;;;;;8.23;2.72;;;;;;;;;;5183135;27;20068;-63
2021/05/18 13:56:23;;;;;;;9.32;2.05;;;;;;;;;;5202071;27;20105;-63
2021/05/18 13:58:52;;;;;;;14.93;4.93;;;;;;;;;;5201715;27;20496;-63
2021/05/18 14:01:19;;;;;;;13.30;2.80;;;;;;;;;;5202287;27;20077;-66
2021/05/18 14:03:46;;;;;;;10.02;2.70;;;;;;;;;;5202971;27;20101;-63
2021/05/18 14:06:14;;;;;;;16.87;4.03;;;;;;;;;;5183724;27;20157;-64
2021/05/18 14:08:41;;;;;;;12.65;2.35;;;;;;;;;;5183088;27;20073;-63
2021/05/18 14:11:19;;;;;;;11.00;2.12;;;;;;;;;;5202187;27;20088;-67
2021/05/18 14:13:47;;;;;;;7.78;2.20;;;;;;;;;;5201965;27;20088;-69
2021/05/18 14:16:19;;;;;;;7.40;2.22;;;;;;;;;;5182857;27;20487;-65
2021/05/18 14:18:46;;;;;;;11.18;2.25;;;;;;;;;;5202027;27;20077;-64
2021/05/18 14:21:12;;;;;;;9.27;1.80;;;;;;;;;;5201967;27;20436;-64
2021/05/18 14:26:10;;;;;;;8.85;2.45;;;;;;;;;;5183863;27;20259;-66
2021/05/18 14:28:37;;;;;;;5.45;2.42;;;;;;;;;;5201819;27;20092;-65
2021/05/18 14:31:08;;;;;;;6.15;2.17;;;;;;;;;;5182715;27;20116;-62
2021/05/18 14:33:35;;;;;;;5.45;2.22;;;;;;;;;;5201911;27;20070;-62
2021/05/18 14:36:01;;;;;;;9.52;1.98;;;;;;;;;;5201848;27;20168;-63
2021/05/18 14:38:27;;;;;;;7.97;3.12;;;;;;;;;;5165411;27;20204;-63
2021/05/18 14:45:49;;;;;;;9.38;2.72;;;;;;;;;;5201795;27;20100;-62
2021/05/18 14:53:43;;;;;;;10.55;2.20;;;;;;;;;;5201800;27;20068;-63
2021/05/18 14:56:21;;;;;;;8.23;3.40;;;;;;;;;;5184940;27;20231;-64
2021/05/18 14:59:09;;;;;;;13.25;3.00;;;;;;;;;;5201496;27;20096;-63
2021/05/18 15:01:35;;;;;;;8.40;2.35;;;;;;;;;;5201711;27;20498;-62
2021/05/18 15:04:01;;;;;;;6.75;2.45;;;;;;;;;;5182354;27;20096;-62
2021/05/18 15:06:27;;;;;;;9.68;2.65;;;;;;;;;;5201302;27;20183;-63
2021/05/18 15:08:53;;;;;;;7.57;3.40;;;;;;;;;;5164781;27;20094;-66
2021/05/18 15:11:19;;;;;;;13.25;2.80;;;;;;;;;;5201587;27;20191;-65
2021/05/18 15:13:45;;;;;;;19.10;2.70;;;;;;;;;;5201884;27;20105;-63
2021/05/18 15:16:11;;;;;;;6.62;2.10;;;;;;;;;;5201565;27;20104;-64
2021/05/18 15:18:37;;;;;;;14.98;3.28;;;;;;;;;;5201508;27;20086;-64
2021/05/18 15:21:03;;;;;;;6.70;2.62;;;;;;;;;;5201942;27;20698;-63
2021/05/18 15:23:29;;;;;;;12.70;3.25;;;;;;;;;;5201534;27;20178;-63
2021/05/18 15:25:56;;;;;;;11.57;3.75;;;;;;;;;;5201573;27;20624;-65
2021/05/18 15:28:22;;;;;;;17.00;3.80;;;;;;;;;;5182302;27;20510;-67
2021/05/18 15:30:48;;;;;;;10.68;3.15;;;;;;;;;;5201517;27;20096;-65
2021/05/18 15:33:14;;;;;;;7.50;2.50;;;;;;;;;;5165080;27;20108;-66
2021/05/18 15:35:40;;;;;;;6.05;2.55;;;;;;;;;;5201490;27;20078;-68
2021/05/18 15:38:06;;;;;;;13.77;3.97;;;;;;;;;;5181928;27;20085;-67
2021/05/18 15:40:32;;;;;;;8.02;2.80;;;;;;;;;;5201373;27;20101;-64
2021/05/18 15:42:58;;;;;;;13.88;2.87;;;;;;;;;;5201458;27;20093;-63
2021/05/18 15:45:24;;;;;;;8.88;3.25;;;;;;;;;;5201462;27;20082;-66
2021/05/18 15:47:50;;;;;;;6.68;2.40;;;;;;;;;;5201602;27;20081;-64
2021/05/18 15:50:16;;;;;;;8.63;2.35;;;;;;;;;;5201737;27;20094;-65
2021/05/18 15:52:42;;;;;;;11.05;2.87;;;;;;;;;;5201335;27;20073;-68
2021/05/18 15:55:08;;;;;;;5.97;2.10;;;;;;;;;;5201333;27;20081;-67
2021/05/18 15:57:35;;;;;;;12.18;2.72;;;;;;;;;;5201283;27;20165;-66
2021/05/18 16:00:00;;;;;;;3.70;1.92;;;;;;;;;;5201426;27;20194;-67
2021/05/18 16:02:27;;;;;;;4.70;2.37;;;;;;;;;;5201521;27;20155;-67
2021/05/18 16:04:52;;;;;;;11.15;2.85;;;;;;;;;;5201245;27;20073;-65
2021/05/18 16:07:20;;;;;;;10.27;2.40;;;;;;;;;;5201122;27;20171;-63
2021/05/18 16:09:46;;;;;;;9.23;3.25;;;;;;;;;;5201306;27;20077;-67
2021/05/18 16:12:14;;;;;;;10.30;2.53;;;;;;;;;;5201164;27;20101;-64
2021/05/18 16:14:40;;;;;;;9.63;3.28;;;;;;;;;;5201254;27;20092;-65
2021/05/18 16:17:07;;;;;;;14.52;4.45;;;;;;;;;;5201131;27;20093;-66
2021/05/18 16:19:34;;;;;;;10.95;2.67;;;;;;;;;;5201345;27;20074;-66
2021/05/18 16:22:02;;;;;;;11.15;2.47;;;;;;;;;;5182595;27;20435;-63
2021/05/18 16:24:32;;;;;;;7.37;3.00;;;;;;;;;;5200918;27;20081;-64
2021/05/18 16:27:05;;;;;;;9.77;3.17;;;;;;;;;;5200878;27;20082;-63
2021/05/18 16:29:38;;;;;;;11.97;3.63;;;;;;;;;;5200303;27;20070;-65
2021/05/18 16:32:11;;;;;;;11.25;2.28;;;;;;;;;;5182852;27;20062;-66
2021/05/18 16:34:38;;;;;;;14.38;3.10;;;;;;;;;;5182495;27;20077;-63
2021/05/18 16:37:04;;;;;;;14.93;3.30;;;;;;;;;;5182077;27;20178;-64
2021/05/18 16:39:30;;;;;;;9.55;2.75;;;;;;;;;;5201080;27;20100;-63
2021/05/18 16:41:56;;;;;;;10.98;2.83;;;;;;;;;;5181874;27;20156;-64
2021/05/18 16:44:23;;;;;;;9.20;3.25;;;;;;;;;;5201072;27;20166;-64
2021/05/18 16:46:49;;;;;;;11.02;2.92;;;;;;;;;;5200937;27;20096;-66
2021/05/18 16:49:16;;;;;;;11.63;3.03;;;;;;;;;;5201144;27;20482;-63
2021/05/18 16:51:42;;;;;;;17.17;3.72;;;;;;;;;;5181961;27;20467;-66
2021/05/18 16:54:09;;;;;;;6.57;2.78;;;;;;;;;;5181953;27;20328;-66
2021/05/18 16:56:36;;;;;;;11.07;3.42;;;;;;;;;;5201331;27;20086;-65
2021/05/18 16:59:05;;;;;;;13.20;3.10;;;;;;;;;;5182063;27;20182;-63
2021/05/18 17:01:31;;;;;;;10.10;3.03;;;;;;;;;;5181413;27;20258;-66
2021/05/18 17:03:58;;;;;;;9.50;3.05;;;;;;;;;;5201456;27;20081;-65
2021/05/18 17:06:29;;;;;;;13.90;3.62;;;;;;;;;;5199738;27;20177;-66
2021/05/18 17:08:55;;;;;;;22.50;3.70;;;;;;;;;;5201932;27;20097;-63
2021/05/18 17:11:21;;;;;;;15.98;5.57;;;;;;;;;;5202260;27;20534;-65
2021/05/18 17:13:52;;;;;;;10.90;4.45;;;;;;;;;;5202422;27;20078;-64
2021/05/18 17:16:26;;;;;;;11.12;4.03;;;;;;;;;;5184933;27;20081;-68
2021/05/18 17:18:53;;;;;;;9.82;3.78;;;;;;;;;;5202706;27;20093;-64
2021/05/18 17:21:18;;;;;;;22.83;4.18;;;;;;;;;;5202344;27;20089;-65
2021/05/18 17:23:44;;;;;;;25.08;5.78;;;;;;;;;;5202401;27;20190;-63
2021/05/18 17:26:11;;;;;;;28.08;5.87;;;;;;;;;;5202334;27;20180;-63
2021/05/18 17:28:39;;;;;;;27.85;4.95;;;;;;;;;;5202374;27;20104;-64
2021/05/18 17:31:06;;;;;;;23.65;4.15;;;;;;;;;;5202363;27;20081;-65
2021/05/18 17:33:32;;;;;;;15.95;5.18;;;;;;;;;;5183273;27;20070;-65
2021/05/18 17:35:58;;;;;;;20.88;5.90;;;;;;;;;;5202282;27;20105;-65
2021/05/18 17:38:26;;;;;;;27.98;6.97;;;;;;;;;;5165754;27;20093;-66
2021/05/18 17:40:56;;;;;;;27.45;9.45;;;;;;;;;;5202630;27;20086;-65
2021/05/18 17:43:26;;;;;;;29.42;5.90;;;;;;;;;;5183186;27;20073;-65
2021/05/18 17:45:52;;;;;;;19.17;5.78;;;;;;;;;;5202568;27;20089;-66
2021/05/18 17:48:18;;;;;;;11.32;3.95;;;;;;;;;;5202065;27;20499;-64
2021/05/18 17:50:44;;;;;;;14.43;3.40;;;;;;;;;;5202274;27;20100;-65
2021/05/18 17:53:10;;;;;;;22.10;4.55;;;;;;;;;;5201990;27;20169;-66
2021/05/18 17:55:36;;;;;;;16.90;3.90;;;;;;;;;;5202539;27;20061;-66
2021/05/18 17:58:02;;;;;;;24.65;4.75;;;;;;;;;;5202153;27;20160;-66
2021/05/18 18:00:33;;;;;;;17.73;4.22;;;;;;;;;;5201682;27;20155;-64
2021/05/18 18:03:08;;;;;;;18.87;4.82;;;;;;;;;;5184012;27;20076;-66
2021/05/18 18:05:34;;;;;;;12.48;3.22;;;;;;;;;;5183019;27;20065;-64
2021/05/18 18:08:00;;;;;;;17.58;4.30;;;;;;;;;;5183384;27;20066;-64
2021/05/18 18:10:27;;;;;;;18.50;4.32;;;;;;;;;;5202196;27;20101;-66
2021/05/18 18:12:56;;;;;;;15.52;4.60;;;;;;;;;;5183089;27;20579;-66
2021/05/18 18:15:23;;;;;;;18.25;4.03;;;;;;;;;;5202142;27;20132;-66
2021/05/18 18:17:50;;;;;;;13.80;5.75;;;;;;;;;;5201999;27;20097;-64
2021/05/18 18:20:17;;;;;;;12.35;4.10;;;;;;;;;;5202066;27;20093;-64
2021/05/18 18:22:43;;;;;;;22.02;7.55;;;;;;;;;;5183525;27;20062;-62
2021/05/18 18:25:11;;;;;;;29.25;8.13;;;;;;;;;;5201848;27;20081;-65
2021/05/18 18:27:38;;;;;;;28.65;8.10;;;;;;;;;;5165578;27;20066;-65
2021/05/18 18:30:05;;;;;;;23.00;8.80;;;;;;;;;;5202304;27;20483;-67
2021/05/18 18:32:33;;;;;;;30.83;9.80;;;;;;;;;;5202292;27;20069;-68
2021/05/18 18:34:59;;;;;;;28.58;9.68;;;;;;;;;;5202176;27;20100;-66
2021/05/18 18:37:34;;;;;;;29.67;8.82;;;;;;;;;;5182915;27;20111;-65
2021/05/18 18:40:01;;;;;;;;;;;;;;;;;;5184825;27;20219;-64
2021/05/18 18:42:28;;;;;;;23.65;7.55;;;;;;;;;;5182123;27;19984;-64
2021/05/18 18:44:54;;;;;;;26.25;7.20;;;;;;;;;;5182820;27;20570;-65
2021/05/18 18:47:21;;;;;;;25.52;6.57;;;;;;;;;;5182911;27;20093;-64
2021/05/18 18:49:53;;;;;;;15.80;6.70;;;;;;;;;;5183652;27;20085;-65
2021/05/18 18:52:57;;;;;;;35.78;7.60;;;;;;;;;;5183017;27;20066;-67
2021/05/18 18:55:14;;;;;;;19.23;7.90;;;;;;;;;;5200613;27;20093;-66
2021/05/18 18:57:40;;;;;;;20.58;6.07;;;;;;;;;;5201926;27;20183;-65
2021/05/18 19:00:10;;;;;;;20.52;6.28;;;;;;;;;;5202285;27;20085;-63
2021/05/18 19:02:44;;;;;;;27.80;6.95;;;;;;;;;;5202076;27;20514;-65
2021/05/18 19:08:02;;;;;;;18.05;5.45;;;;;;;;;;5202263;27;20486;-64
2021/05/18 19:13:13;;;;;;;23.87;6.00;;;;;;;;;;5201623;27;20432;-63
2021/05/18 19:15:40;;;;;;;19.80;4.78;;;;;;;;;;5165394;27;20164;-66
2021/05/18 19:18:07;;;;;;;19.50;6.43;;;;;;;;;;5182523;27;20165;-66
2021/05/18 19:20:33;;;;;;;15.40;5.10;;;;;;;;;;5202307;27;20074;-65
2021/05/18 19:23:00;;;;;;;14.20;5.20;;;;;;;;;;5202121;27;20066;-65
2021/05/18 19:25:26;;;;;;;16.10;6.75;;;;;;;;;;5182433;27;20097;-65
2021/05/18 19:27:56;;;;;;;31.08;12.93;;;;;;;;;;5182287;27;20084;-65
2021/05/18 19:30:23;;;;;;;42.00;20.20;;;;;;;;;;5202390;27;20388;-66
2021/05/18 19:32:49;;;;;;;36.97;17.17;;;;;;;;;;5182557;27;20066;-64
2021/05/18 19:35:26;;;;;;;28.77;11.43;;;;;;;;;;5202106;27;20478;-65
2021/05/18 19:43:33;;;;;;;22.48;9.13;;;;;;;;;;5185314;27;20097;-66
2021/05/18 19:48:46;;;;;;;30.12;6.05;;;;;;;;;;5201854;27;20081;-63
2021/05/18 19:51:13;;;;;;;14.65;6.05;;;;;;;;;;5201422;27;20065;-66
2021/05/18 19:53:43;;;;;;;10.25;4.62;;;;;;;;;;5201488;27;20097;-63
2021/05/18 20:23:22;;;;;;;10.20;3.58;;;;;;;;;;5201401;27;20171;-64
2021/05/18 20:25:48;;;;;;;23.30;3.90;;;;;;;;;;5164834;27;20156;-62
2021/05/18 20:28:16;;;;;;;14.95;3.83;;;;;;;;;;5201339;27;20082;-62
2021/05/18 20:30:47;;;;;;;14.05;3.55;;;;;;;;;;5201510;27;20088;-64
2021/05/18 20:33:27;;;;;;;22.98;5.05;;;;;;;;;;5201356;27;20089;-64
2021/05/18 20:41:31;;;;;;;;;;;;;;;;;;5182394;27;20109;-65
2021/05/18 20:44:01;;;;;;;16.33;3.60;;;;;;;;;;5199662;27;19981;-64
2021/05/18 20:46:28;;;;;;;11.55;3.53;;;;;;;;;;5199529;27;20502;-66
2021/05/18 20:48:54;;;;;;;14.10;3.90;;;;;;;;;;5199490;27;20179;-65
2021/05/18 20:51:21;;;;;;;12.35;4.10;;;;;;;;;;5199564;27;20113;-65
2021/05/18 20:53:48;;;;;;;11.55;3.62;;;;;;;;;;5181829;27;20079;-65
2021/05/18 20:56:15;;;;;;;15.88;3.80;;;;;;;;;;5201417;27;20085;-64
2021/05/18 20:58:41;;;;;;;12.77;3.42;;;;;;;;;;5201380;27;20101;-65
2021/05/18 21:01:08;;;;;;;11.27;3.55;;;;;;;;;;5201172;27;20484;-64
2021/05/18 21:03:35;;;;;;;12.52;3.58;;;;;;;;;;5164677;27;20190;-65